sensor_id;sensor_type;location;lat;lon;timestamp;pressure;altitude;pressure_sealevel;temperature
29423;BMP180;16399;51.686;8.684;2024-01-15T00:02:45;98341.00;;;1.10
29423;BMP180;16399;51.686;8.684;2024-01-15T00:05:47;98325.00;;;1.10
29423;BMP180;16399;51.686;8.684;2024-01-15T00:08:49;98339.00;;;1.10
29423;BMP180;16399;51.686;8.684;2024-01-15T00:11:52;98331.00;;;1.10
29423;BMP180;16399;51.686;8.684;2024-01-15T00:14:54;98336.00;;;1.10
29423;BMP180;16399;51.686;8.684;2024-01-15T00:17:56;98324.00;;;1.10
29423;BMP180;16399;51.686;8.684;2024-01-15T00:20:58;98318.00;;;1.10
29423;BMP180;16399;51.686;8.684;2024-01-15T00:24:01;98314.00;;;1.10
29423;BMP180;16399;51.686;8.684;2024-01-15T00:27:04;98312.00;;;1.20
29423;BMP180;16399;51.686;8.684;2024-01-15T00:30:07;98303.00;;;1.10
29423;BMP180;16399;51.686;8.684;2024-01-15T00:33:12;98305.00;;;1.10
29423;BMP180;16399;51.686;8.684;2024-01-15T00:36:15;98313.00;;;1.20
29423;BMP180;16399;51.686;8.684;2024-01-15T00:39:18;98303.00;;;1.10
29423;BMP180;16399;51.686;8.684;2024-01-15T00:42:20;98299.00;;;1.10
29423;BMP180;16399;51.686;8.684;2024-01-15T00:45:22;98293.00;;;1.10
29423;BMP180;16399;51.686;8.684;2024-01-15T00:48:25;98298.00;;;1.10
29423;BMP180;16399;51.686;8.684;2024-01-15T00:51:27;98298.00;;;1.10
29423;BMP180;16399;51.686;8.684;2024-01-15T00:54:29;98295.00;;;1.10
29423;BMP180;16399;51.686;8.684;2024-01-15T00:57:31;98304.00;;;1.10
29423;BMP180;16399;51.686;8.684;2024-01-15T01:00:34;98294.00;;;1.20
29423;BMP180;16399;51.686;8.684;2024-01-15T01:03:36;98299.00;;;1.20
29423;BMP180;16399;51.686;8.684;2024-01-15T01:06:38;98296.00;;;1.20
29423;BMP180;16399;51.686;8.684;2024-01-15T01:09:41;98292.00;;;1.20
29423;BMP180;16399;51.686;8.684;2024-01-15T01:12:43;98311.00;;;1.20
29423;BMP180;16399;51.686;8.684;2024-01-15T01:15:45;98317.00;;;1.20
29423;BMP180;16399;51.686;8.684;2024-01-15T01:18:47;98317.00;;;1.20
29423;BMP180;16399;51.686;8.684;2024-01-15T01:21:50;98310.00;;;1.20
29423;BMP180;16399;51.686;8.684;2024-01-15T01:24:52;98311.00;;;1.20
29423;BMP180;16399;51.686;8.684;2024-01-15T01:27:54;98312.00;;;1.20
29423;BMP180;16399;51.686;8.684;2024-01-15T01:30:58;98302.00;;;1.20
29423;BMP180;16399;51.686;8.684;2024-01-15T01:34:00;98305.00;;;1.20
29423;BMP180;16399;51.686;8.684;2024-01-15T01:37:02;98312.00;;;1.20
29423;BMP180;16399;51.686;8.684;2024-01-15T01:40:05;98315.00;;;1.20
29423;BMP180;16399;51.686;8.684;2024-01-15T01:43:09;98305.00;;;1.20
29423;BMP180;16399;51.686;8.684;2024-01-15T01:46:12;98309.00;;;1.20
29423;BMP180;16399;51.686;8.684;2024-01-15T01:49:14;98301.00;;;1.20
29423;BMP180;16399;51.686;8.684;2024-01-15T01:52:16;98298.00;;;1.20
29423;BMP180;16399;51.686;8.684;2024-01-15T01:55:19;98305.00;;;1.20
29423;BMP180;16399;51.686;8.684;2024-01-15T01:58:22;98300.00;;;1.20
29423;BMP180;16399;51.686;8.684;2024-01-15T02:01:25;98306.00;;;1.20
29423;BMP180;16399;51.686;8.684;2024-01-15T02:04:28;98304.00;;;1.20
29423;BMP180;16399;51.686;8.684;2024-01-15T02:07:31;98291.00;;;1.20
29423;BMP180;16399;51.686;8.684;2024-01-15T02:10:34;98291.00;;;1.20
29423;BMP180;16399;51.686;8.684;2024-01-15T02:13:36;98284.00;;;1.20
29423;BMP180;16399;51.686;8.684;2024-01-15T02:16:38;98284.00;;;1.10
29423;BMP180;16399;51.686;8.684;2024-01-15T02:19:40;98285.00;;;1.20
29423;BMP180;16399;51.686;8.684;2024-01-15T02:22:43;98271.00;;;1.20
29423;BMP180;16399;51.686;8.684;2024-01-15T02:25:46;98279.00;;;1.20
29423;BMP180;16399;51.686;8.684;2024-01-15T02:28:49;98279.00;;;1.20
29423;BMP180;16399;51.686;8.684;2024-01-15T02:31:52;98273.00;;;1.20
29423;BMP180;16399;51.686;8.684;2024-01-15T02:34:54;98287.00;;;1.20
29423;BMP180;16399;51.686;8.684;2024-01-15T02:37:57;98274.00;;;1.20
29423;BMP180;16399;51.686;8.684;2024-01-15T02:40:59;98291.00;;;1.20
29423;BMP180;16399;51.686;8.684;2024-01-15T02:44:01;98289.00;;;1.20
29423;BMP180;16399;51.686;8.684;2024-01-15T02:47:04;98300.00;;;1.20
29423;BMP180;16399;51.686;8.684;2024-01-15T02:50:06;98279.00;;;1.20
29423;BMP180;16399;51.686;8.684;2024-01-15T02:53:09;98282.00;;;1.20
29423;BMP180;16399;51.686;8.684;2024-01-15T02:56:11;98290.00;;;1.20
29423;BMP180;16399;51.686;8.684;2024-01-15T02:59:13;98291.00;;;1.20
29423;BMP180;16399;51.686;8.684;2024-01-15T03:02:16;98291.00;;;1.20
29423;BMP180;16399;51.686;8.684;2024-01-15T03:05:18;98280.00;;;1.30
29423;BMP180;16399;51.686;8.684;2024-01-15T03:08:21;98294.00;;;1.30
29423;BMP180;16399;51.686;8.684;2024-01-15T03:11:24;98294.00;;;1.30
29423;BMP180;16399;51.686;8.684;2024-01-15T03:14:26;98290.00;;;1.30
29423;BMP180;16399;51.686;8.684;2024-01-15T03:17:28;98281.00;;;1.30
29423;BMP180;16399;51.686;8.684;2024-01-15T03:20:31;98275.00;;;1.30
29423;BMP180;16399;51.686;8.684;2024-01-15T03:23:33;98285.00;;;1.30
29423;BMP180;16399;51.686;8.684;2024-01-15T03:26:35;98287.00;;;1.40
29423;BMP180;16399;51.686;8.684;2024-01-15T03:29:39;98278.00;;;1.30
29423;BMP180;16399;51.686;8.684;2024-01-15T03:32:41;98264.00;;;1.40
29423;BMP180;16399;51.686;8.684;2024-01-15T03:35:43;98271.00;;;1.40
29423;BMP180;16399;51.686;8.684;2024-01-15T03:38:45;98269.00;;;1.30
29423;BMP180;16399;51.686;8.684;2024-01-15T03:41:48;98271.00;;;1.30
29423;BMP180;16399;51.686;8.684;2024-01-15T03:44:50;98261.00;;;1.40
29423;BMP180;16399;51.686;8.684;2024-01-15T03:47:52;98259.00;;;1.40
29423;BMP180;16399;51.686;8.684;2024-01-15T03:50:55;98259.00;;;1.40
29423;BMP180;16399;51.686;8.684;2024-01-15T03:53:57;98262.00;;;1.40
29423;BMP180;16399;51.686;8.684;2024-01-15T03:56:59;98264.00;;;1.40
29423;BMP180;16399;51.686;8.684;2024-01-15T04:00:01;98269.00;;;1.40
29423;BMP180;16399;51.686;8.684;2024-01-15T04:03:04;98266.00;;;1.40
29423;BMP180;16399;51.686;8.684;2024-01-15T04:06:07;98254.00;;;1.40
29423;BMP180;16399;51.686;8.684;2024-01-15T04:09:09;98271.00;;;1.40
29423;BMP180;16399;51.686;8.684;2024-01-15T04:12:11;98256.00;;;1.40
29423;BMP180;16399;51.686;8.684;2024-01-15T04:15:14;98252.00;;;1.40
29423;BMP180;16399;51.686;8.684;2024-01-15T04:18:16;98253.00;;;1.40
29423;BMP180;16399;51.686;8.684;2024-01-15T04:21:19;98243.00;;;1.40
29423;BMP180;16399;51.686;8.684;2024-01-15T04:24:21;98242.00;;;1.40
29423;BMP180;16399;51.686;8.684;2024-01-15T04:27:23;98189.00;;;1.40
29423;BMP180;16399;51.686;8.684;2024-01-15T04:30:26;98228.00;;;1.40
29423;BMP180;16399;51.686;8.684;2024-01-15T04:33:28;98227.00;;;1.40
29423;BMP180;16399;51.686;8.684;2024-01-15T04:36:30;98235.00;;;1.40
29423;BMP180;16399;51.686;8.684;2024-01-15T04:39:33;98225.00;;;1.50
29423;BMP180;16399;51.686;8.684;2024-01-15T04:42:35;98237.00;;;1.50
29423;BMP180;16399;51.686;8.684;2024-01-15T04:45:37;98224.00;;;1.50
29423;BMP180;16399;51.686;8.684;2024-01-15T04:48:39;98234.00;;;1.40
29423;BMP180;16399;51.686;8.684;2024-01-15T04:51:42;98226.00;;;1.40
29423;BMP180;16399;51.686;8.684;2024-01-15T04:54:44;98230.00;;;1.40
29423;BMP180;16399;51.686;8.684;2024-01-15T04:57:46;98225.00;;;1.40
29423;BMP180;16399;51.686;8.684;2024-01-15T05:00:49;98212.00;;;1.40
29423;BMP180;16399;51.686;8.684;2024-01-15T05:03:51;98220.00;;;1.30
29423;BMP180;16399;51.686;8.684;2024-01-15T05:06:54;98208.00;;;1.30
29423;BMP180;16399;51.686;8.684;2024-01-15T05:09:57;98207.00;;;1.30
29423;BMP180;16399;51.686;8.684;2024-01-15T05:12:59;98198.00;;;1.30
29423;BMP180;16399;51.686;8.684;2024-01-15T05:16:01;98199.00;;;1.30
29423;BMP180;16399;51.686;8.684;2024-01-15T05:19:04;98209.00;;;1.30
29423;BMP180;16399;51.686;8.684;2024-01-15T05:22:06;98198.00;;;1.40
29423;BMP180;16399;51.686;8.684;2024-01-15T05:25:08;98196.00;;;1.30
29423;BMP180;16399;51.686;8.684;2024-01-15T05:28:10;98200.00;;;1.40
29423;BMP180;16399;51.686;8.684;2024-01-15T05:31:13;98182.00;;;1.40
29423;BMP180;16399;51.686;8.684;2024-01-15T05:34:15;98185.00;;;1.40
29423;BMP180;16399;51.686;8.684;2024-01-15T05:37:17;98201.00;;;1.40
29423;BMP180;16399;51.686;8.684;2024-01-15T05:40:20;98193.00;;;1.40
29423;BMP180;16399;51.686;8.684;2024-01-15T05:43:22;98194.00;;;1.40
29423;BMP180;16399;51.686;8.684;2024-01-15T05:46:24;98195.00;;;1.40
29423;BMP180;16399;51.686;8.684;2024-01-15T05:49:26;98198.00;;;1.50
29423;BMP180;16399;51.686;8.684;2024-01-15T05:52:29;98202.00;;;1.40
29423;BMP180;16399;51.686;8.684;2024-01-15T05:55:31;98201.00;;;1.40
29423;BMP180;16399;51.686;8.684;2024-01-15T05:58:33;98208.00;;;1.30
29423;BMP180;16399;51.686;8.684;2024-01-15T06:01:35;98205.00;;;1.30
29423;BMP180;16399;51.686;8.684;2024-01-15T06:04:38;98200.00;;;1.30
29423;BMP180;16399;51.686;8.684;2024-01-15T06:07:41;98204.00;;;1.30
29423;BMP180;16399;51.686;8.684;2024-01-15T06:10:43;98197.00;;;1.30
29423;BMP180;16399;51.686;8.684;2024-01-15T06:13:46;98204.00;;;1.20
29423;BMP180;16399;51.686;8.684;2024-01-15T06:16:48;98206.00;;;1.20
29423;BMP180;16399;51.686;8.684;2024-01-15T06:19:50;98209.00;;;1.20
29423;BMP180;16399;51.686;8.684;2024-01-15T06:22:52;98210.00;;;1.20
29423;BMP180;16399;51.686;8.684;2024-01-15T06:25:55;98202.00;;;1.10
29423;BMP180;16399;51.686;8.684;2024-01-15T06:28:57;98199.00;;;1.10
29423;BMP180;16399;51.686;8.684;2024-01-15T06:31:59;98206.00;;;1.10
29423;BMP180;16399;51.686;8.684;2024-01-15T06:35:02;98197.00;;;1.10
29423;BMP180;16399;51.686;8.684;2024-01-15T06:38:04;98202.00;;;1.20
29423;BMP180;16399;51.686;8.684;2024-01-15T06:41:06;98204.00;;;1.20
29423;BMP180;16399;51.686;8.684;2024-01-15T06:44:09;98192.00;;;1.20
29423;BMP180;16399;51.686;8.684;2024-01-15T06:47:13;98196.00;;;1.30
29423;BMP180;16399;51.686;8.684;2024-01-15T06:50:16;98196.00;;;1.30
29423;BMP180;16399;51.686;8.684;2024-01-15T06:53:18;98182.00;;;1.30
29423;BMP180;16399;51.686;8.684;2024-01-15T06:56:20;98192.00;;;1.30
29423;BMP180;16399;51.686;8.684;2024-01-15T06:59:23;98197.00;;;1.30
29423;BMP180;16399;51.686;8.684;2024-01-15T07:02:25;98183.00;;;1.30
29423;BMP180;16399;51.686;8.684;2024-01-15T07:05:28;98194.00;;;1.30
29423;BMP180;16399;51.686;8.684;2024-01-15T07:08:31;98194.00;;;1.40
29423;BMP180;16399;51.686;8.684;2024-01-15T07:11:34;98179.00;;;1.30
29423;BMP180;16399;51.686;8.684;2024-01-15T07:14:36;98206.00;;;1.30
29423;BMP180;16399;51.686;8.684;2024-01-15T07:17:38;98202.00;;;1.30
29423;BMP180;16399;51.686;8.684;2024-01-15T07:20:41;98197.00;;;1.30
29423;BMP180;16399;51.686;8.684;2024-01-15T07:23:43;98202.00;;;1.40
29423;BMP180;16399;51.686;8.684;2024-01-15T07:26:45;98201.00;;;1.40
29423;BMP180;16399;51.686;8.684;2024-01-15T07:29:48;98194.00;;;1.40
29423;BMP180;16399;51.686;8.684;2024-01-15T07:32:50;98203.00;;;1.40
29423;BMP180;16399;51.686;8.684;2024-01-15T07:35:54;98208.00;;;1.40
29423;BMP180;16399;51.686;8.684;2024-01-15T07:38:56;98204.00;;;1.40
29423;BMP180;16399;51.686;8.684;2024-01-15T07:41:58;98207.00;;;1.40
29423;BMP180;16399;51.686;8.684;2024-01-15T07:45:01;98215.00;;;1.40
29423;BMP180;16399;51.686;8.684;2024-01-15T07:48:03;98212.00;;;1.40
29423;BMP180;16399;51.686;8.684;2024-01-15T07:51:05;98222.00;;;1.40
29423;BMP180;16399;51.686;8.684;2024-01-15T07:54:08;98213.00;;;1.40
29423;BMP180;16399;51.686;8.684;2024-01-15T07:57:11;98219.00;;;1.40
29423;BMP180;16399;51.686;8.684;2024-01-15T08:00:13;98208.00;;;1.30
29423;BMP180;16399;51.686;8.684;2024-01-15T08:03:15;98228.00;;;1.30
29423;BMP180;16399;51.686;8.684;2024-01-15T08:06:18;98218.00;;;1.30
29423;BMP180;16399;51.686;8.684;2024-01-15T08:09:20;98227.00;;;1.30
29423;BMP180;16399;51.686;8.684;2024-01-15T08:12:23;98225.00;;;1.30
29423;BMP180;16399;51.686;8.684;2024-01-15T08:15:25;98224.00;;;1.30
29423;BMP180;16399;51.686;8.684;2024-01-15T08:18:27;98237.00;;;1.30
29423;BMP180;16399;51.686;8.684;2024-01-15T08:21:29;98226.00;;;1.20
29423;BMP180;16399;51.686;8.684;2024-01-15T08:24:33;98234.00;;;1.20
29423;BMP180;16399;51.686;8.684;2024-01-15T08:27:35;98222.00;;;1.20
29423;BMP180;16399;51.686;8.684;2024-01-15T08:30:37;98222.00;;;1.20
29423;BMP180;16399;51.686;8.684;2024-01-15T08:33:40;98214.00;;;1.10
29423;BMP180;16399;51.686;8.684;2024-01-15T08:36:42;98214.00;;;1.10
29423;BMP180;16399;51.686;8.684;2024-01-15T08:39:44;98207.00;;;1.10
29423;BMP180;16399;51.686;8.684;2024-01-15T08:42:46;98211.00;;;1.10
29423;BMP180;16399;51.686;8.684;2024-01-15T08:45:49;98213.00;;;1.10
29423;BMP180;16399;51.686;8.684;2024-01-15T08:48:52;98221.00;;;1.10
29423;BMP180;16399;51.686;8.684;2024-01-15T08:51:54;98224.00;;;1.10
29423;BMP180;16399;51.686;8.684;2024-01-15T08:54:57;98211.00;;;1.10
29423;BMP180;16399;51.686;8.684;2024-01-15T08:57:59;98217.00;;;1.10
29423;BMP180;16399;51.686;8.684;2024-01-15T09:01:02;98227.00;;;1.20
29423;BMP180;16399;51.686;8.684;2024-01-15T09:04:04;98214.00;;;1.20
29423;BMP180;16399;51.686;8.684;2024-01-15T09:07:08;98221.00;;;1.20
29423;BMP180;16399;51.686;8.684;2024-01-15T09:10:10;98213.00;;;1.20
29423;BMP180;16399;51.686;8.684;2024-01-15T09:13:12;98226.00;;;1.30
29423;BMP180;16399;51.686;8.684;2024-01-15T09:16:14;98219.00;;;1.30
29423;BMP180;16399;51.686;8.684;2024-01-15T09:19:17;98222.00;;;1.30
29423;BMP180;16399;51.686;8.684;2024-01-15T09:22:19;98226.00;;;1.30
29423;BMP180;16399;51.686;8.684;2024-01-15T09:25:21;98226.00;;;1.30
29423;BMP180;16399;51.686;8.684;2024-01-15T09:28:23;98225.00;;;1.30
29423;BMP180;16399;51.686;8.684;2024-01-15T09:31:26;98227.00;;;1.30
29423;BMP180;16399;51.686;8.684;2024-01-15T09:34:28;98229.00;;;1.30
29423;BMP180;16399;51.686;8.684;2024-01-15T09:37:31;98218.00;;;1.30
29423;BMP180;16399;51.686;8.684;2024-01-15T09:40:33;98210.00;;;1.30
29423;BMP180;16399;51.686;8.684;2024-01-15T09:43:37;98213.00;;;1.30
29423;BMP180;16399;51.686;8.684;2024-01-15T09:46:40;98213.00;;;1.30
29423;BMP180;16399;51.686;8.684;2024-01-15T09:49:43;98214.00;;;1.30
29423;BMP180;16399;51.686;8.684;2024-01-15T09:52:45;98210.00;;;1.30
29423;BMP180;16399;51.686;8.684;2024-01-15T09:55:49;98219.00;;;1.30
29423;BMP180;16399;51.686;8.684;2024-01-15T09:58:52;98225.00;;;1.30
29423;BMP180;16399;51.686;8.684;2024-01-15T10:01:56;98222.00;;;1.30
29423;BMP180;16399;51.686;8.684;2024-01-15T10:04:59;98214.00;;;1.30
29423;BMP180;16399;51.686;8.684;2024-01-15T10:08:01;98222.00;;;1.30
29423;BMP180;16399;51.686;8.684;2024-01-15T10:11:04;98216.00;;;1.30
29423;BMP180;16399;51.686;8.684;2024-01-15T10:14:08;98207.00;;;1.40
29423;BMP180;16399;51.686;8.684;2024-01-15T10:17:13;98219.00;;;1.50
29423;BMP180;16399;51.686;8.684;2024-01-15T10:20:17;98241.00;;;1.50
29423;BMP180;16399;51.686;8.684;2024-01-15T10:23:20;98224.00;;;1.50
29423;BMP180;16399;51.686;8.684;2024-01-15T10:26:24;98228.00;;;1.50
29423;BMP180;16399;51.686;8.684;2024-01-15T10:29:27;98218.00;;;1.40
29423;BMP180;16399;51.686;8.684;2024-01-15T10:32:30;98210.00;;;1.40
29423;BMP180;16399;51.686;8.684;2024-01-15T10:35:34;98211.00;;;1.50
29423;BMP180;16399;51.686;8.684;2024-01-15T10:38:36;98216.00;;;1.50
29423;BMP180;16399;51.686;8.684;2024-01-15T10:41:39;98214.00;;;1.50
29423;BMP180;16399;51.686;8.684;2024-01-15T10:44:41;98214.00;;;1.50
29423;BMP180;16399;51.686;8.684;2024-01-15T10:47:50;98207.00;;;1.50
29423;BMP180;16399;51.686;8.684;2024-01-15T10:50:52;98214.00;;;1.40
29423;BMP180;16399;51.686;8.684;2024-01-15T10:53:55;98200.00;;;1.40
29423;BMP180;16399;51.686;8.684;2024-01-15T10:56:58;98206.00;;;1.50
29423;BMP180;16399;51.686;8.684;2024-01-15T11:00:01;98198.00;;;1.50
29423;BMP180;16399;51.686;8.684;2024-01-15T11:03:05;98201.00;;;1.50
29423;BMP180;16399;51.686;8.684;2024-01-15T11:06:21;98205.00;;;1.50
29423;BMP180;16399;51.686;8.684;2024-01-15T11:09:24;98207.00;;;1.60
29423;BMP180;16399;51.686;8.684;2024-01-15T11:12:26;98201.00;;;1.60
29423;BMP180;16399;51.686;8.684;2024-01-15T11:15:29;98199.00;;;1.70
29423;BMP180;16399;51.686;8.684;2024-01-15T11:18:43;98213.00;;;1.70
29423;BMP180;16399;51.686;8.684;2024-01-15T11:21:44;98199.00;;;1.70
29423;BMP180;16399;51.686;8.684;2024-01-15T11:24:47;98201.00;;;1.70
29423;BMP180;16399;51.686;8.684;2024-01-15T11:27:51;98199.00;;;1.70
29423;BMP180;16399;51.686;8.684;2024-01-15T11:30:53;98194.00;;;1.70
29423;BMP180;16399;51.686;8.684;2024-01-15T11:33:56;98184.00;;;1.70
29423;BMP180;16399;51.686;8.684;2024-01-15T11:37:01;98200.00;;;1.70
29423;BMP180;16399;51.686;8.684;2024-01-15T11:40:05;98201.00;;;1.60
29423;BMP180;16399;51.686;8.684;2024-01-15T11:43:09;98193.00;;;1.60
29423;BMP180;16399;51.686;8.684;2024-01-15T11:46:12;98189.00;;;1.80
29423;BMP180;16399;51.686;8.684;2024-01-15T11:49:17;98195.00;;;1.80
29423;BMP180;16399;51.686;8.684;2024-01-15T11:52:21;98189.00;;;1.90
29423;BMP180;16399;51.686;8.684;2024-01-15T11:55:35;98183.00;;;1.90
29423;BMP180;16399;51.686;8.684;2024-01-15T11:58:38;98187.00;;;1.90
29423;BMP180;16399;51.686;8.684;2024-01-15T12:01:40;98194.00;;;1.90
29423;BMP180;16399;51.686;8.684;2024-01-15T12:04:42;98188.00;;;1.80
29423;BMP180;16399;51.686;8.684;2024-01-15T12:07:48;98195.00;;;1.80
29423;BMP180;16399;51.686;8.684;2024-01-15T12:10:50;98191.00;;;1.80
29423;BMP180;16399;51.686;8.684;2024-01-15T12:13:52;98195.00;;;1.70
29423;BMP180;16399;51.686;8.684;2024-01-15T12:16:56;98202.00;;;1.70
29423;BMP180;16399;51.686;8.684;2024-01-15T12:19:58;98192.00;;;1.60
29423;BMP180;16399;51.686;8.684;2024-01-15T12:23:01;98197.00;;;1.60
29423;BMP180;16399;51.686;8.684;2024-01-15T12:26:11;98199.00;;;1.70
29423;BMP180;16399;51.686;8.684;2024-01-15T12:29:13;98196.00;;;1.60
29423;BMP180;16399;51.686;8.684;2024-01-15T12:32:16;98206.00;;;1.70
29423;BMP180;16399;51.686;8.684;2024-01-15T12:35:18;98201.00;;;1.70
29423;BMP180;16399;51.686;8.684;2024-01-15T12:38:20;98209.00;;;1.70
29423;BMP180;16399;51.686;8.684;2024-01-15T12:41:23;98211.00;;;1.60
29423;BMP180;16399;51.686;8.684;2024-01-15T12:44:25;98215.00;;;1.60
29423;BMP180;16399;51.686;8.684;2024-01-15T12:47:28;98200.00;;;1.60
29423;BMP180;16399;51.686;8.684;2024-01-15T12:50:30;98212.00;;;1.60
29423;BMP180;16399;51.686;8.684;2024-01-15T12:53:32;98207.00;;;1.60
29423;BMP180;16399;51.686;8.684;2024-01-15T12:56:34;98220.00;;;1.60
29423;BMP180;16399;51.686;8.684;2024-01-15T12:59:37;98221.00;;;1.50
29423;BMP180;16399;51.686;8.684;2024-01-15T13:02:39;98131.00;;;1.50
29423;BMP180;16399;51.686;8.684;2024-01-15T13:05:42;98216.00;;;1.60
29423;BMP180;16399;51.686;8.684;2024-01-15T13:08:46;98218.00;;;1.60
29423;BMP180;16399;51.686;8.684;2024-01-15T13:11:48;98216.00;;;1.50
29423;BMP180;16399;51.686;8.684;2024-01-15T13:14:51;98210.00;;;1.50
29423;BMP180;16399;51.686;8.684;2024-01-15T13:17:53;98218.00;;;1.60
29423;BMP180;16399;51.686;8.684;2024-01-15T13:20:55;98217.00;;;1.50
29423;BMP180;16399;51.686;8.684;2024-01-15T13:23:58;98205.00;;;1.50
29423;BMP180;16399;51.686;8.684;2024-01-15T13:27:00;98209.00;;;1.60
29423;BMP180;16399;51.686;8.684;2024-01-15T13:30:04;98200.00;;;1.60
29423;BMP180;16399;51.686;8.684;2024-01-15T13:33:07;98204.00;;;1.60
29423;BMP180;16399;51.686;8.684;2024-01-15T13:36:09;98208.00;;;1.60
29423;BMP180;16399;51.686;8.684;2024-01-15T13:39:12;98194.00;;;1.60
29423;BMP180;16399;51.686;8.684;2024-01-15T13:42:14;98209.00;;;1.70
29423;BMP180;16399;51.686;8.684;2024-01-15T13:45:16;98212.00;;;1.60
29423;BMP180;16399;51.686;8.684;2024-01-15T13:48:19;98214.00;;;1.60
29423;BMP180;16399;51.686;8.684;2024-01-15T13:51:24;98214.00;;;1.60
29423;BMP180;16399;51.686;8.684;2024-01-15T13:54:26;98215.00;;;1.60
29423;BMP180;16399;51.686;8.684;2024-01-15T13:57:29;98212.00;;;1.60
29423;BMP180;16399;51.686;8.684;2024-01-15T14:00:32;98210.00;;;1.60
29423;BMP180;16399;51.686;8.684;2024-01-15T14:03:34;98200.00;;;1.60
29423;BMP180;16399;51.686;8.684;2024-01-15T14:06:37;98199.00;;;1.60
29423;BMP180;16399;51.686;8.684;2024-01-15T14:09:40;98198.00;;;1.60
29423;BMP180;16399;51.686;8.684;2024-01-15T14:12:43;98192.00;;;1.50
29423;BMP180;16399;51.686;8.684;2024-01-15T14:15:45;98208.00;;;1.40
29423;BMP180;16399;51.686;8.684;2024-01-15T14:18:49;98206.00;;;1.40
29423;BMP180;16399;51.686;8.684;2024-01-15T14:21:51;98204.00;;;1.30
29423;BMP180;16399;51.686;8.684;2024-01-15T14:24:54;98224.00;;;1.30
29423;BMP180;16399;51.686;8.684;2024-01-15T14:27:56;98219.00;;;1.30
29423;BMP180;16399;51.686;8.684;2024-01-15T14:31:00;98193.00;;;1.30
29423;BMP180;16399;51.686;8.684;2024-01-15T14:34:02;98224.00;;;1.30
29423;BMP180;16399;51.686;8.684;2024-01-15T14:37:04;98231.00;;;1.30
29423;BMP180;16399;51.686;8.684;2024-01-15T14:40:07;98244.00;;;1.30
29423;BMP180;16399;51.686;8.684;2024-01-15T14:43:10;98240.00;;;1.30
29423;BMP180;16399;51.686;8.684;2024-01-15T14:46:12;98251.00;;;1.30
29423;BMP180;16399;51.686;8.684;2024-01-15T14:49:14;98263.00;;;1.30
29423;BMP180;16399;51.686;8.684;2024-01-15T14:52:18;98243.00;;;1.30
29423;BMP180;16399;51.686;8.684;2024-01-15T14:55:21;98238.00;;;1.30
29423;BMP180;16399;51.686;8.684;2024-01-15T14:58:24;98239.00;;;1.40
29423;BMP180;16399;51.686;8.684;2024-01-15T15:01:26;98248.00;;;1.30
29423;BMP180;16399;51.686;8.684;2024-01-15T15:04:29;98248.00;;;1.40
29423;BMP180;16399;51.686;8.684;2024-01-15T15:07:31;98236.00;;;1.40
29423;BMP180;16399;51.686;8.684;2024-01-15T15:10:35;98250.00;;;1.50
29423;BMP180;16399;51.686;8.684;2024-01-15T15:13:37;98264.00;;;1.50
29423;BMP180;16399;51.686;8.684;2024-01-15T15:16:39;98265.00;;;1.50
29423;BMP180;16399;51.686;8.684;2024-01-15T15:19:42;98251.00;;;1.50
29423;BMP180;16399;51.686;8.684;2024-01-15T15:22:44;98279.00;;;1.50
29423;BMP180;16399;51.686;8.684;2024-01-15T15:25:46;98298.00;;;1.40
29423;BMP180;16399;51.686;8.684;2024-01-15T15:28:48;98302.00;;;1.50
29423;BMP180;16399;51.686;8.684;2024-01-15T15:31:51;98325.00;;;1.50
29423;BMP180;16399;51.686;8.684;2024-01-15T15:34:53;98323.00;;;1.40
29423;BMP180;16399;51.686;8.684;2024-01-15T15:37:55;98338.00;;;1.40
29423;BMP180;16399;51.686;8.684;2024-01-15T15:40:58;98352.00;;;1.30
29423;BMP180;16399;51.686;8.684;2024-01-15T15:44:03;98355.00;;;1.30
29423;BMP180;16399;51.686;8.684;2024-01-15T15:47:05;98355.00;;;1.20
29423;BMP180;16399;51.686;8.684;2024-01-15T15:50:08;98367.00;;;1.20
29423;BMP180;16399;51.686;8.684;2024-01-15T15:53:12;98370.00;;;1.20
29423;BMP180;16399;51.686;8.684;2024-01-15T15:56:14;98379.00;;;1.20
29423;BMP180;16399;51.686;8.684;2024-01-15T15:59:16;98382.00;;;1.10
29423;BMP180;16399;51.686;8.684;2024-01-15T16:02:20;98385.00;;;1.20
29423;BMP180;16399;51.686;8.684;2024-01-15T16:05:23;98393.00;;;1.20
29423;BMP180;16399;51.686;8.684;2024-01-15T16:08:25;98398.00;;;1.20
29423;BMP180;16399;51.686;8.684;2024-01-15T16:11:28;98401.00;;;1.20
29423;BMP180;16399;51.686;8.684;2024-01-15T16:14:30;98402.00;;;1.20
29423;BMP180;16399;51.686;8.684;2024-01-15T16:17:33;98395.00;;;1.20
29423;BMP180;16399;51.686;8.684;2024-01-15T16:20:35;98397.00;;;1.10
29423;BMP180;16399;51.686;8.684;2024-01-15T16:23:37;98400.00;;;1.20
29423;BMP180;16399;51.686;8.684;2024-01-15T16:26:40;98412.00;;;1.20
29423;BMP180;16399;51.686;8.684;2024-01-15T16:29:42;98420.00;;;1.20
29423;BMP180;16399;51.686;8.684;2024-01-15T16:32:44;98411.00;;;1.20
29423;BMP180;16399;51.686;8.684;2024-01-15T16:35:47;98429.00;;;1.20
29423;BMP180;16399;51.686;8.684;2024-01-15T16:38:49;98452.00;;;1.20
29423;BMP180;16399;51.686;8.684;2024-01-15T16:41:52;98455.00;;;1.20
29423;BMP180;16399;51.686;8.684;2024-01-15T16:44:54;98451.00;;;1.20
29423;BMP180;16399;51.686;8.684;2024-01-15T16:47:56;98457.00;;;1.20
29423;BMP180;16399;51.686;8.684;2024-01-15T16:50:59;98448.00;;;1.20
29423;BMP180;16399;51.686;8.684;2024-01-15T16:54:01;98461.00;;;1.20
29423;BMP180;16399;51.686;8.684;2024-01-15T16:57:03;98470.00;;;1.20
29423;BMP180;16399;51.686;8.684;2024-01-15T17:00:06;98476.00;;;1.10
29423;BMP180;16399;51.686;8.684;2024-01-15T17:03:09;98475.00;;;1.10
29423;BMP180;16399;51.686;8.684;2024-01-15T17:06:11;98474.00;;;1.00
29423;BMP180;16399;51.686;8.684;2024-01-15T17:09:14;98478.00;;;1.00
29423;BMP180;16399;51.686;8.684;2024-01-15T17:12:16;98485.00;;;1.00
29423;BMP180;16399;51.686;8.684;2024-01-15T17:15:19;98489.00;;;1.00
29423;BMP180;16399;51.686;8.684;2024-01-15T17:18:21;98486.00;;;1.00
29423;BMP180;16399;51.686;8.684;2024-01-15T17:21:24;98493.00;;;1.00
29423;BMP180;16399;51.686;8.684;2024-01-15T17:24:26;98492.00;;;0.90
29423;BMP180;16399;51.686;8.684;2024-01-15T17:27:29;98502.00;;;0.90
29423;BMP180;16399;51.686;8.684;2024-01-15T17:30:32;98501.00;;;0.90
29423;BMP180;16399;51.686;8.684;2024-01-15T17:33:34;98499.00;;;0.90
29423;BMP180;16399;51.686;8.684;2024-01-15T17:36:36;98511.00;;;0.90
29423;BMP180;16399;51.686;8.684;2024-01-15T17:39:40;98509.00;;;0.90
29423;BMP180;16399;51.686;8.684;2024-01-15T17:42:43;98519.00;;;0.90
29423;BMP180;16399;51.686;8.684;2024-01-15T17:45:47;98524.00;;;0.90
29423;BMP180;16399;51.686;8.684;2024-01-15T17:48:49;98523.00;;;0.90